createdAt,value
2022-09-23T00:00:42.139Z,2.67
2022-09-23T00:03:09.391Z,2.50
2022-09-23T00:05:36.196Z,3.03
2022-09-23T00:08:02.705Z,2.90
2022-09-23T00:10:31.073Z,3.28
2022-09-23T00:12:59.137Z,3.10
2022-09-23T00:15:26.480Z,3.28
2022-09-23T00:17:53.161Z,3.55
2022-09-23T00:20:20.119Z,2.45
2022-09-23T00:22:46.984Z,2.60
2022-09-23T00:25:13.460Z,2.85
2022-09-23T00:27:40.269Z,2.92
2022-09-23T00:30:08.710Z,3.38
2022-09-23T00:32:36.469Z,2.90
2022-09-23T00:35:04.024Z,3.38
2022-09-23T00:37:31.222Z,3.53
2022-09-23T00:39:59.663Z,3.40
2022-09-23T00:42:26.075Z,2.97
2022-09-23T00:44:55.190Z,3.03
2022-09-23T00:47:23.817Z,3.55
2022-09-23T00:50:25.346Z,2.90
2022-09-23T00:55:27.908Z,3.13
2022-09-23T00:57:57.598Z,2.90
2022-09-23T01:00:24.546Z,4.35
2022-09-23T01:02:51.537Z,3.00
2022-09-23T01:05:18.948Z,2.65
2022-09-23T01:07:46.075Z,3.10
2022-09-23T01:10:15.634Z,2.95
2022-09-23T01:13:08.279Z,2.55
2022-09-23T01:15:50.231Z,2.92
2022-09-23T01:18:28.716Z,2.70
2022-09-23T01:21:16.627Z,2.60
2022-09-23T01:23:55.156Z,2.45
2022-09-23T01:26:42.824Z,3.55
2022-09-23T01:29:25.043Z,3.58
2022-09-23T01:32:38.635Z,3.28
2022-09-23T01:35:30.348Z,3.03
2022-09-23T01:38:16.675Z,3.10
2022-09-23T01:40:52.593Z,3.05
2022-09-23T01:43:53.100Z,3.58
2022-09-23T01:46:29.533Z,2.40
2022-09-23T01:49:20.037Z,3.40
2022-09-23T01:51:53.247Z,3.17
2022-09-23T01:54:38.441Z,2.90
2022-09-23T01:57:25.402Z,2.95
2022-09-23T02:00:05.083Z,3.10
2022-09-23T02:02:49.250Z,3.45
2022-09-23T02:05:30.124Z,3.38
2022-09-23T02:08:08.731Z,2.83
2022-09-23T02:10:44.115Z,2.83
2022-09-23T02:13:20.455Z,2.95
2022-09-23T02:15:52.381Z,3.00
2022-09-23T02:18:26.456Z,2.95
2022-09-23T02:20:58.289Z,3.03
2022-09-23T02:23:48.849Z,3.13
2022-09-23T02:26:22.721Z,3.20
2022-09-23T02:29:21.457Z,2.70
2022-09-23T02:32:17.709Z,3.05
2022-09-23T02:34:50.120Z,2.53
2022-09-23T02:37:31.189Z,2.80
2022-09-23T02:40:09.832Z,2.75
2022-09-23T02:43:05.208Z,2.65
2022-09-23T02:45:31.864Z,2.90
2022-09-23T02:48:04.282Z,2.80
2022-09-23T02:50:32.927Z,3.05
2022-09-23T02:53:00.589Z,3.20
2022-09-23T02:55:32.803Z,2.67
2022-09-23T02:58:03.747Z,2.80
2022-09-23T03:00:50.017Z,3.10
2022-09-23T03:03:36.290Z,2.72
2022-09-23T03:06:15.572Z,3.22
2022-09-23T03:09:07.745Z,2.70
2022-09-23T03:11:39.225Z,3.20
2022-09-23T03:14:26.901Z,3.03
2022-09-23T03:17:03.531Z,3.47
2022-09-23T03:19:42.187Z,3.42
2022-09-23T03:22:12.943Z,2.63
2022-09-23T03:24:44.704Z,2.80
2022-09-23T03:27:17.516Z,2.83
2022-09-23T03:29:47.866Z,2.90
2022-09-23T03:32:20.655Z,3.10
2022-09-23T03:34:50.465Z,3.65
2022-09-23T03:37:39.941Z,3.65
2022-09-23T03:40:23.644Z,3.28
2022-09-23T03:42:51.137Z,3.50
2022-09-23T03:45:23.728Z,3.00
2022-09-23T03:47:50.092Z,3.50
2022-09-23T03:50:19.093Z,3.42
2022-09-23T03:52:46.328Z,3.90
2022-09-23T03:55:12.736Z,5.07
2022-09-23T03:57:39.579Z,4.07
2022-09-23T04:00:07.361Z,3.83
2022-09-23T04:02:40.133Z,5.07
2022-09-23T04:05:07.801Z,5.93
2022-09-23T04:07:34.150Z,4.97
2022-09-23T04:10:00.628Z,4.65
2022-09-23T04:12:26.989Z,4.75
2022-09-23T04:14:53.352Z,5.13
2022-09-23T04:17:19.680Z,5.57
2022-09-23T04:19:46.047Z,5.53
2022-09-23T04:22:12.496Z,5.45
2022-09-23T04:24:38.925Z,4.57
2022-09-23T04:27:05.317Z,5.30
2022-09-23T04:29:31.790Z,4.82
2022-09-23T04:31:58.280Z,4.63
2022-09-23T04:34:24.728Z,4.07
2022-09-23T04:36:51.226Z,5.72
2022-09-23T04:39:17.945Z,4.22
2022-09-23T04:41:45.031Z,4.53
2022-09-23T04:44:12.490Z,4.53
2022-09-23T04:46:40.239Z,4.63
2022-09-23T04:49:07.686Z,9.00
2022-09-23T04:51:34.570Z,11.30
2022-09-23T04:54:00.941Z,12.18
2022-09-23T04:56:32.482Z,12.20
2022-09-23T04:58:58.836Z,12.60
2022-09-23T05:01:28.900Z,10.25
2022-09-23T05:03:57.841Z,4.25
2022-09-23T05:06:25.111Z,4.18
2022-09-23T05:08:54.471Z,4.45
2022-09-23T05:11:21.398Z,3.90
2022-09-23T05:13:48.751Z,3.63
2022-09-23T05:16:15.921Z,3.95
2022-09-23T05:18:43.945Z,3.70
2022-09-23T05:21:12.208Z,3.53
2022-09-23T05:23:40.464Z,3.33
2022-09-23T05:26:11.843Z,3.47
2022-09-23T05:28:39.347Z,3.45
2022-09-23T05:31:05.716Z,5.07
2022-09-23T05:33:33.328Z,3.83
2022-09-23T05:36:00.795Z,4.45
2022-09-23T05:38:31.497Z,4.25
2022-09-23T05:40:59.471Z,3.35
2022-09-23T05:43:26.213Z,4.10
2022-09-23T05:46:07.756Z,4.03
2022-09-23T05:48:35.881Z,3.78
2022-09-23T05:51:03.324Z,4.15
2022-09-23T05:53:30.865Z,4.38
2022-09-23T05:55:57.949Z,4.53
2022-09-23T05:58:24.880Z,4.85
2022-09-23T06:00:51.743Z,4.78
2022-09-23T06:03:20.472Z,5.25
2022-09-23T06:05:48.413Z,5.28
2022-09-23T06:08:15.179Z,4.70
2022-09-23T06:10:44.102Z,5.32
2022-09-23T06:13:10.986Z,5.20
2022-09-23T06:15:38.329Z,4.90
2022-09-23T06:18:06.162Z,5.72
2022-09-23T06:20:34.079Z,4.72
2022-09-23T06:23:07.954Z,4.57
2022-09-23T06:25:38.308Z,4.80
2022-09-23T06:28:07.403Z,9.70
2022-09-23T06:30:34.681Z,12.15
2022-09-23T06:33:01.839Z,5.63
2022-09-23T06:35:28.271Z,4.82
2022-09-23T06:37:54.994Z,6.63
2022-09-23T06:40:24.678Z,5.55
2022-09-23T06:42:58.698Z,5.80
2022-09-23T06:45:25.421Z,5.43
2022-09-23T06:47:56.257Z,6.78
2022-09-23T06:50:26.840Z,6.50
2022-09-23T06:52:55.899Z,6.22
2022-09-23T06:55:27.124Z,6.63
2022-09-23T07:00:21.114Z,7.90
2022-09-23T07:02:47.601Z,7.25
2022-09-23T07:05:16.369Z,7.75
2022-09-23T07:07:46.002Z,6.65
2022-09-23T07:10:12.593Z,7.85
2022-09-23T07:12:39.367Z,6.10
2022-09-23T07:15:06.687Z,8.20
2022-09-23T07:17:33.225Z,8.20
2022-09-23T07:19:59.647Z,7.78
2022-09-23T07:22:26.383Z,7.10
2022-09-23T07:24:55.959Z,8.02
2022-09-23T07:27:27.120Z,6.93
2022-09-23T07:29:54.769Z,10.85
2022-09-23T07:32:22.632Z,7.80
2022-09-23T07:34:49.377Z,6.60
2022-09-23T07:37:17.135Z,7.32
2022-09-23T07:39:44.530Z,8.25
2022-09-23T07:42:12.335Z,6.97
2022-09-23T07:44:39.377Z,6.57
2022-09-23T07:47:06.080Z,7.30
2022-09-23T07:49:35.653Z,6.28
2022-09-23T07:52:02.648Z,7.32
2022-09-23T07:54:29.916Z,7.43
2022-09-23T07:56:56.543Z,6.82
2022-09-23T07:59:23.386Z,7.32
2022-09-23T08:01:52.550Z,7.22
2022-09-23T08:04:22.415Z,7.13
2022-09-23T08:06:51.535Z,6.85
2022-09-23T08:09:19.877Z,6.90
2022-09-23T08:11:46.360Z,7.10
2022-09-23T08:14:14.558Z,6.55
2022-09-23T08:16:42.138Z,6.72
2022-09-23T08:19:09.195Z,7.38
2022-09-23T08:21:37.588Z,6.65
2022-09-23T08:24:04.020Z,7.55
2022-09-23T08:26:32.517Z,8.38
2022-09-23T08:28:58.967Z,7.10
2022-09-23T08:31:25.631Z,7.63
2022-09-23T08:33:56.720Z,7.88
2022-09-23T08:36:24.283Z,7.25
2022-09-23T08:38:50.798Z,6.53
2022-09-23T08:41:29.279Z,6.55
2022-09-23T08:44:04.428Z,6.50
2022-09-23T08:46:37.671Z,6.80
2022-09-23T08:49:07.557Z,7.07
2022-09-23T08:51:41.096Z,7.03
2022-09-23T08:54:11.468Z,6.18
2022-09-23T08:56:38.954Z,6.40
2022-09-23T08:59:13.270Z,6.20
2022-09-23T09:01:56.591Z,7.53
2022-09-23T09:04:27.662Z,7.95
2022-09-23T09:07:35.626Z,6.93
2022-09-23T09:10:19.640Z,6.30
2022-09-23T09:13:13.171Z,6.82
2022-09-23T09:16:01.326Z,6.47
2022-09-23T09:18:31.176Z,6.85
2022-09-23T09:21:11.972Z,6.63
2022-09-23T09:24:00.156Z,7.00
2022-09-23T09:26:29.220Z,6.60
2022-09-23T09:29:33.780Z,7.20
2022-09-23T09:31:59.572Z,6.30
2022-09-23T09:34:33.578Z,6.55
2022-09-23T09:37:08.215Z,6.75
2022-09-23T09:39:36.129Z,5.82
2022-09-23T09:42:04.329Z,6.60
2022-09-23T09:44:50.119Z,6.80
2022-09-23T09:47:35.677Z,6.05
2022-09-23T09:50:11.431Z,7.72
2022-09-23T09:52:40.578Z,6.57
2022-09-23T09:55:12.833Z,5.72
2022-09-23T09:57:44.775Z,5.82
2022-09-23T10:00:34.749Z,5.88
2022-09-23T10:03:04.991Z,6.20
2022-09-23T10:05:46.809Z,6.57
2022-09-23T10:08:36.367Z,6.05
2022-09-23T10:11:17.819Z,5.95
2022-09-23T10:14:00.138Z,5.68
2022-09-23T10:16:28.228Z,5.63
2022-09-23T10:18:56.913Z,5.57
2022-09-23T10:21:27.970Z,5.50
2022-09-23T10:26:33.545Z,5.63
2022-09-23T10:29:30.868Z,5.28
2022-09-23T10:32:30.057Z,5.10
2022-09-23T10:35:14.799Z,5.30
2022-09-23T10:37:59.173Z,5.05
2022-09-23T10:40:57.344Z,5.00
2022-09-23T10:44:00.781Z,5.60
2022-09-23T10:46:38.976Z,6.55
2022-09-23T10:49:17.440Z,5.30
2022-09-23T10:51:43.772Z,5.78
2022-09-23T10:54:36.343Z,5.63
2022-09-23T10:57:41.054Z,4.70
2022-09-23T11:00:37.837Z,5.88
2022-09-23T11:03:20.655Z,5.28
2022-09-23T11:05:59.179Z,4.90
2022-09-23T11:08:48.001Z,5.03
2022-09-23T11:11:34.586Z,4.75
2022-09-23T11:14:16.880Z,4.60
2022-09-23T11:17:14.694Z,4.75
2022-09-23T11:20:02.963Z,5.43
2022-09-23T11:22:54.318Z,4.93
2022-09-23T11:28:17.614Z,4.55
2022-09-23T11:31:01.548Z,4.63
2022-09-23T11:33:44.656Z,4.70
2022-09-23T11:36:28.776Z,5.10
2022-09-23T11:39:00.108Z,3.80
2022-09-23T11:41:46.667Z,3.90
2022-09-23T11:44:19.977Z,4.18
2022-09-23T11:47:05.113Z,3.92
2022-09-23T11:49:40.026Z,4.25
2022-09-23T11:52:22.332Z,4.63
2022-09-23T11:55:22.107Z,4.95
2022-09-23T11:58:22.587Z,4.55
2022-09-23T12:01:01.290Z,4.20
2022-09-23T12:03:55.432Z,4.22
2022-09-23T12:06:26.917Z,4.07
2022-09-23T12:09:03.700Z,3.92
2022-09-23T12:11:58.856Z,3.80
2022-09-23T12:14:59.675Z,3.50
2022-09-23T12:17:49.293Z,3.40
2022-09-23T12:20:28.369Z,3.53
2022-09-23T12:22:57.643Z,4.18
2022-09-23T12:26:07.700Z,4.38
2022-09-23T12:28:41.390Z,4.22
2022-09-23T12:31:14.797Z,3.90
2022-09-23T12:33:50.374Z,3.70
2022-09-23T12:36:25.172Z,3.40
2022-09-23T12:39:05.532Z,3.20
2022-09-23T12:41:42.477Z,3.37
2022-09-23T12:44:14.819Z,3.97
2022-09-23T12:46:43.365Z,3.42
2022-09-23T12:49:25.159Z,3.17
2022-09-23T12:52:28.028Z,3.45
2022-09-23T12:55:02.945Z,3.83
2022-09-23T12:57:35.036Z,3.03
2022-09-23T13:00:12.456Z,3.25
2022-09-23T13:02:47.819Z,3.00
2022-09-23T13:05:40.422Z,3.40
2022-09-23T13:08:16.172Z,3.17
2022-09-23T13:10:55.341Z,3.00
2022-09-23T13:13:31.565Z,3.42
2022-09-23T13:16:21.230Z,2.38
2022-09-23T13:18:57.821Z,2.55
2022-09-23T13:21:42.572Z,2.88
2022-09-23T13:24:31.058Z,3.03
2022-09-23T13:27:11.891Z,2.70
2022-09-23T13:29:44.919Z,2.60
2022-09-23T13:32:14.906Z,2.10
2022-09-23T13:34:44.254Z,2.28
2022-09-23T13:37:25.016Z,2.63
2022-09-23T13:39:51.373Z,2.30
2022-09-23T13:42:29.393Z,2.40
2022-09-23T13:44:58.930Z,2.22
2022-09-23T13:47:28.596Z,2.42
2022-09-23T13:49:55.658Z,2.17
2022-09-23T13:52:26.834Z,2.45
2022-09-23T13:54:53.541Z,2.20
2022-09-23T13:57:30.273Z,2.25
2022-09-23T14:00:01.553Z,2.10
2022-09-23T14:02:30.735Z,2.20
2022-09-23T14:05:01.001Z,2.20
2022-09-23T14:07:27.432Z,2.83
2022-09-23T14:09:55.853Z,1.80
2022-09-23T14:12:22.937Z,2.10
2022-09-23T14:14:51.709Z,1.98
2022-09-23T14:17:21.460Z,1.98
2022-09-23T14:19:48.323Z,1.40
2022-09-23T14:22:26.968Z,1.80
2022-09-23T14:24:55.839Z,1.45
2022-09-23T14:27:33.299Z,1.90
2022-09-23T14:30:02.616Z,1.60
2022-09-23T14:32:30.008Z,1.65
2022-09-23T14:34:59.359Z,1.40
2022-09-23T14:37:56.583Z,1.77
2022-09-23T14:40:34.233Z,1.38
2022-09-23T14:43:16.814Z,1.92
2022-09-23T14:45:50.548Z,2.15
2022-09-23T14:48:22.628Z,2.00
2022-09-23T14:50:54.262Z,2.47
2022-09-23T14:53:23.288Z,1.80
2022-09-23T14:55:53.392Z,2.08
2022-09-23T14:58:25.538Z,1.92
2022-09-23T15:00:54.359Z,2.05
2022-09-23T15:03:21.194Z,2.03
2022-09-23T15:05:50.837Z,1.83
2022-09-23T15:08:22.923Z,2.25
2022-09-23T15:10:50.231Z,1.70
2022-09-23T15:13:20.848Z,2.17
2022-09-23T15:15:47.619Z,1.95
2022-09-23T15:18:25.241Z,2.35
2022-09-23T15:20:54.564Z,2.08
2022-09-23T15:23:46.905Z,1.90
2022-09-23T15:26:18.952Z,1.75
2022-09-23T15:28:46.276Z,2.00
2022-09-23T15:31:18.298Z,2.17
2022-09-23T15:33:46.329Z,2.08
2022-09-23T15:36:21.484Z,1.60
2022-09-23T15:38:48.294Z,2.22
2022-09-23T15:41:15.695Z,1.90
2022-09-23T15:43:42.080Z,2.03
2022-09-23T15:46:16.571Z,2.35
2022-09-23T15:48:53.150Z,2.10
2022-09-23T15:51:23.037Z,2.00
2022-09-23T15:53:50.492Z,1.98
2022-09-23T15:56:17.199Z,2.10
2022-09-23T15:58:43.528Z,2.10
2022-09-23T16:01:20.778Z,2.15
2022-09-23T16:03:47.236Z,2.47
2022-09-23T16:06:13.785Z,1.92
2022-09-23T16:08:42.113Z,2.42
2022-09-23T16:11:20.131Z,2.85
2022-09-23T16:13:46.667Z,2.50
2022-09-23T16:16:13.312Z,2.95
2022-09-23T16:18:42.184Z,2.08
2022-09-23T16:21:12.683Z,2.40
2022-09-23T16:23:43.455Z,2.95
2022-09-23T16:26:22.120Z,1.90
2022-09-23T16:28:49.768Z,2.60
2022-09-23T16:31:17.191Z,1.77
2022-09-23T16:33:45.254Z,2.60
2022-09-23T16:36:23.453Z,2.30
2022-09-23T16:38:50.002Z,2.00
2022-09-23T16:41:16.441Z,3.00
2022-09-23T16:43:42.897Z,3.08
2022-09-23T16:46:12.152Z,2.58
2022-09-23T16:48:40.371Z,3.40
2022-09-23T16:51:15.651Z,3.15
2022-09-23T16:53:42.646Z,3.10
2022-09-23T16:56:10.956Z,2.90
2022-09-23T16:58:38.452Z,2.95
2022-09-23T17:01:25.331Z,2.30
2022-09-23T17:03:51.898Z,3.17
2022-09-23T17:06:19.262Z,2.72
2022-09-23T17:08:48.103Z,2.88
2022-09-23T17:11:16.410Z,2.75
2022-09-23T17:13:44.124Z,2.50
2022-09-23T17:16:20.570Z,2.72
2022-09-23T17:18:46.999Z,2.50
2022-09-23T17:21:13.463Z,3.05
2022-09-23T17:23:39.792Z,2.95
2022-09-23T17:26:09.589Z,2.85
2022-09-23T17:28:36.043Z,3.40
2022-09-23T17:31:04.301Z,3.20
2022-09-23T17:33:32.254Z,3.40
2022-09-23T17:35:59.932Z,3.75
2022-09-23T17:38:29.318Z,3.80
2022-09-23T17:40:58.977Z,3.55
2022-09-23T17:43:25.752Z,3.63
2022-09-23T17:45:54.448Z,3.13
2022-09-23T17:48:22.488Z,2.85
2022-09-23T17:50:55.704Z,3.08
2022-09-23T17:53:22.597Z,3.75
2022-09-23T17:56:05.824Z,3.38
2022-09-23T17:58:36.635Z,3.47
2022-09-23T18:01:04.195Z,4.55
2022-09-23T18:03:31.683Z,3.70
2022-09-23T18:06:19.287Z,3.80
2022-09-23T18:08:47.500Z,3.58
2022-09-23T18:11:16.804Z,4.15
2022-09-23T18:13:51.780Z,4.68
2022-09-23T18:16:19.172Z,5.57
2022-09-23T18:18:53.369Z,5.90
2022-09-23T18:21:21.626Z,5.75
2022-09-23T18:23:50.371Z,6.10
2022-09-23T18:26:24.373Z,4.93
2022-09-23T18:28:53.555Z,6.45
2022-09-23T18:31:20.400Z,5.97
2022-09-23T18:33:51.308Z,6.88
2022-09-23T18:36:21.555Z,5.20
2022-09-23T18:38:48.740Z,4.20
2022-09-23T18:41:15.572Z,4.38
2022-09-23T18:43:47.596Z,4.32
2022-09-23T18:46:17.885Z,4.50
2022-09-23T18:49:03.738Z,4.03
2022-09-23T18:51:32.227Z,4.15
2022-09-23T18:54:00.628Z,4.13
2022-09-23T18:56:37.112Z,3.83
2022-09-23T18:59:08.465Z,3.83
2022-09-23T19:01:35.135Z,3.95
2022-09-23T19:04:02.364Z,4.57
2022-09-23T19:06:31.338Z,4.65
2022-09-23T19:08:58.279Z,4.90
2022-09-23T19:11:25.311Z,4.30
2022-09-23T19:13:54.281Z,4.30
2022-09-23T19:16:22.390Z,3.88
2022-09-23T19:18:49.938Z,4.40
2022-09-23T19:21:20.249Z,3.83
2022-09-23T19:23:49.100Z,3.63
2022-09-23T19:26:19.574Z,3.25
2022-09-23T19:28:54.848Z,3.00
2022-09-23T19:31:24.390Z,4.20
2022-09-23T19:34:02.346Z,5.88
2022-09-23T19:36:30.824Z,6.65
2022-09-23T19:39:02.806Z,5.35
2022-09-23T19:41:33.462Z,4.78
2022-09-23T19:44:03.754Z,4.70
2022-09-23T19:46:32.198Z,3.92
2022-09-23T19:49:00.159Z,3.72
2022-09-23T19:51:27.210Z,4.07
2022-09-23T19:53:53.776Z,4.30
2022-09-23T19:56:20.136Z,4.18
2022-09-23T19:58:48.658Z,3.60
2022-09-23T20:01:16.238Z,4.32
2022-09-23T20:03:46.987Z,4.85
2022-09-23T20:06:14.732Z,4.57
2022-09-23T20:08:41.794Z,5.93
2022-09-23T20:11:11.491Z,4.97
2022-09-23T20:13:43.875Z,4.57
2022-09-23T20:16:13.321Z,4.07
2022-09-23T20:18:39.808Z,4.43
2022-09-23T20:21:07.530Z,4.95
2022-09-23T20:23:34.366Z,4.70
2022-09-23T20:26:21.044Z,4.80
2022-09-23T20:28:47.604Z,6.57
2022-09-23T20:31:15.138Z,13.35
2022-09-23T20:33:42.042Z,19.25
2022-09-23T20:36:09.538Z,15.32
2022-09-23T20:38:36.564Z,9.38
2022-09-23T20:41:03.355Z,6.65
2022-09-23T20:43:32.199Z,5.68
2022-09-23T20:45:58.572Z,4.57
2022-09-23T20:48:25.431Z,4.25
2022-09-23T20:50:51.801Z,4.10
2022-09-23T20:53:19.165Z,4.18
2022-09-23T20:55:53.064Z,4.10
2022-09-23T20:58:19.725Z,4.75
2022-09-23T21:00:46.107Z,4.57
2022-09-23T21:03:13.293Z,5.40
2022-09-23T21:05:41.956Z,5.07
2022-09-23T21:08:08.863Z,4.70
2022-09-23T21:10:35.645Z,4.18
2022-09-23T21:13:04.119Z,4.00
2022-09-23T21:15:32.344Z,3.65
2022-09-23T21:17:59.027Z,3.67
2022-09-23T21:20:25.365Z,3.38
2022-09-23T21:22:51.768Z,3.33
2022-09-23T21:25:33.656Z,2.85
2022-09-23T21:28:01.858Z,3.88
2022-09-23T21:30:28.300Z,2.75
2022-09-23T21:32:55.424Z,4.93
2022-09-23T21:35:22.097Z,3.13
2022-09-23T21:37:48.457Z,3.13
2022-09-23T21:40:33.522Z,3.22
2022-09-23T21:43:00.324Z,2.85
2022-09-23T21:45:27.323Z,2.72
2022-09-23T21:47:54.155Z,4.07
2022-09-23T21:50:20.590Z,3.15
2022-09-23T21:52:51.753Z,2.88
2022-09-23T21:57:45.984Z,4.38
2022-09-23T22:00:12.781Z,2.70
2022-09-23T22:02:39.822Z,2.70
2022-09-23T22:05:07.239Z,3.10
2022-09-23T22:07:38.034Z,3.65
2022-09-23T22:10:05.868Z,3.13
2022-09-23T22:12:33.414Z,3.63
2022-09-23T22:14:59.853Z,2.58
2022-09-23T22:17:26.237Z,3.10
2022-09-23T22:19:52.560Z,3.30
2022-09-23T22:22:18.993Z,4.32
2022-09-23T22:24:47.000Z,3.70
2022-09-23T22:27:17.654Z,3.65
2022-09-23T22:30:02.536Z,3.58
2022-09-23T22:32:40.776Z,3.63
2022-09-23T22:35:12.621Z,4.32
2022-09-23T22:37:39.277Z,4.80
2022-09-23T22:40:13.793Z,4.93
2022-09-23T22:42:41.439Z,4.70
2022-09-23T22:45:09.584Z,4.30
2022-09-23T22:47:38.064Z,3.80
2022-09-23T22:50:09.014Z,3.45
2022-09-23T22:52:36.051Z,4.03
2022-09-23T22:55:03.622Z,3.65
2022-09-23T22:57:29.979Z,3.70
2022-09-23T22:59:56.386Z,3.08
2022-09-23T23:02:23.623Z,2.85
2022-09-23T23:04:50.250Z,3.42
2022-09-23T23:07:20.950Z,3.13
2022-09-23T23:09:50.063Z,3.45
2022-09-23T23:12:16.757Z,4.28
2022-09-23T23:14:43.157Z,3.15
2022-09-23T23:17:09.617Z,3.80
2022-09-23T23:19:37.115Z,3.42
2022-09-23T23:22:04.845Z,3.10
2022-09-23T23:24:31.375Z,3.00
2022-09-23T23:26:57.940Z,3.03
2022-09-23T23:29:24.303Z,3.40
2022-09-23T23:31:50.777Z,3.47
2022-09-23T23:34:19.933Z,3.28
2022-09-23T23:36:47.985Z,3.13
2022-09-23T23:39:14.811Z,3.55
2022-09-23T23:41:41.619Z,3.25
2022-09-23T23:44:09.022Z,3.47
2022-09-23T23:46:37.213Z,4.03
2022-09-23T23:49:04.994Z,4.53
2022-09-23T23:51:31.989Z,4.35
2022-09-23T23:53:59.288Z,3.95
2022-09-23T23:56:26.649Z,4.50
2022-09-23T23:58:55.273Z,3.40
